sensor_id;sensor_type;location;lat;lon;timestamp;temperature;humidity
71142;DHT22;58808;59.366;17.970;2022-08-24T00:00:12;15.10;99.90
71142;DHT22;58808;59.366;17.970;2022-08-24T00:02:39;15.10;99.90
71142;DHT22;58808;59.366;17.970;2022-08-24T00:05:05;15.10;99.90
71142;DHT22;58808;59.366;17.970;2022-08-24T00:07:32;15.10;99.90
71142;DHT22;58808;59.366;17.970;2022-08-24T00:09:59;15.00;99.90
71142;DHT22;58808;59.366;17.970;2022-08-24T00:12:25;15.00;99.90
71142;DHT22;58808;59.366;17.970;2022-08-24T00:14:51;15.00;99.90
71142;DHT22;58808;59.366;17.970;2022-08-24T00:17:18;14.90;99.90
71142;DHT22;58808;59.366;17.970;2022-08-24T00:19:47;14.90;99.90
71142;DHT22;58808;59.366;17.970;2022-08-24T00:22:13;14.90;99.90
71142;DHT22;58808;59.366;17.970;2022-08-24T00:24:39;14.80;99.90
71142;DHT22;58808;59.366;17.970;2022-08-24T00:27:05;14.80;99.90
71142;DHT22;58808;59.366;17.970;2022-08-24T00:29:32;14.80;99.90
71142;DHT22;58808;59.366;17.970;2022-08-24T00:31:58;14.80;99.90
71142;DHT22;58808;59.366;17.970;2022-08-24T00:34:24;14.80;99.90
71142;DHT22;58808;59.366;17.970;2022-08-24T00:36:51;14.80;99.90
71142;DHT22;58808;59.366;17.970;2022-08-24T00:39:18;14.80;99.90
71142;DHT22;58808;59.366;17.970;2022-08-24T00:41:46;14.80;99.90
71142;DHT22;58808;59.366;17.970;2022-08-24T00:44:13;14.70;99.90
71142;DHT22;58808;59.366;17.970;2022-08-24T00:46:54;14.60;99.90
71142;DHT22;58808;59.366;17.970;2022-08-24T00:49:43;14.60;99.90
71142;DHT22;58808;59.366;17.970;2022-08-24T00:52:32;14.60;99.90
71142;DHT22;58808;59.366;17.970;2022-08-24T00:55:06;14.60;99.90
71142;DHT22;58808;59.366;17.970;2022-08-24T00:57:37;14.50;99.90
71142;DHT22;58808;59.366;17.970;2022-08-24T01:00:08;14.60;99.90
71142;DHT22;58808;59.366;17.970;2022-08-24T01:02:37;14.60;99.90
71142;DHT22;58808;59.366;17.970;2022-08-24T01:05:06;14.50;99.90
71142;DHT22;58808;59.366;17.970;2022-08-24T01:07:33;14.50;99.90
71142;DHT22;58808;59.366;17.970;2022-08-24T01:10:03;14.50;99.90
71142;DHT22;58808;59.366;17.970;2022-08-24T01:12:31;14.40;99.90
71142;DHT22;58808;59.366;17.970;2022-08-24T01:14:59;14.40;99.90
71142;DHT22;58808;59.366;17.970;2022-08-24T01:17:25;14.30;99.90
71142;DHT22;58808;59.366;17.970;2022-08-24T01:20:10;14.30;99.90
71142;DHT22;58808;59.366;17.970;2022-08-24T01:25:24;14.30;99.90
71142;DHT22;58808;59.366;17.970;2022-08-24T01:27:52;14.30;99.90
71142;DHT22;58808;59.366;17.970;2022-08-24T01:30:25;14.30;99.90
71142;DHT22;58808;59.366;17.970;2022-08-24T01:32:57;14.30;99.90
71142;DHT22;58808;59.366;17.970;2022-08-24T01:35:23;14.30;99.90
71142;DHT22;58808;59.366;17.970;2022-08-24T01:37:50;14.20;99.90
71142;DHT22;58808;59.366;17.970;2022-08-24T01:40:17;14.20;99.90
71142;DHT22;58808;59.366;17.970;2022-08-24T01:42:48;14.20;99.90
71142;DHT22;58808;59.366;17.970;2022-08-24T01:45:15;14.20;99.90
71142;DHT22;58808;59.366;17.970;2022-08-24T01:47:41;14.10;99.90
71142;DHT22;58808;59.366;17.970;2022-08-24T01:50:07;14.10;99.90
71142;DHT22;58808;59.366;17.970;2022-08-24T01:52:32;14.10;99.90
71142;DHT22;58808;59.366;17.970;2022-08-24T01:54:59;14.10;99.90
71142;DHT22;58808;59.366;17.970;2022-08-24T01:57:26;14.10;99.90
71142;DHT22;58808;59.366;17.970;2022-08-24T01:59:52;14.00;99.90
71142;DHT22;58808;59.366;17.970;2022-08-24T02:02:25;14.00;99.90
71142;DHT22;58808;59.366;17.970;2022-08-24T02:04:52;13.90;99.90
71142;DHT22;58808;59.366;17.970;2022-08-24T02:07:18;13.90;99.90
71142;DHT22;58808;59.366;17.970;2022-08-24T02:09:44;13.90;99.90
71142;DHT22;58808;59.366;17.970;2022-08-24T02:12:11;13.90;99.90
71142;DHT22;58808;59.366;17.970;2022-08-24T02:14:37;13.90;99.90
71142;DHT22;58808;59.366;17.970;2022-08-24T02:17:05;13.80;99.90
71142;DHT22;58808;59.366;17.970;2022-08-24T02:19:32;13.90;99.90
71142;DHT22;58808;59.366;17.970;2022-08-24T02:21:58;13.80;99.90
71142;DHT22;58808;59.366;17.970;2022-08-24T02:24:26;13.80;99.90
71142;DHT22;58808;59.366;17.970;2022-08-24T02:26:52;13.70;99.90
71142;DHT22;58808;59.366;17.970;2022-08-24T02:29:18;13.70;99.90
71142;DHT22;58808;59.366;17.970;2022-08-24T02:31:43;13.60;99.90
71142;DHT22;58808;59.366;17.970;2022-08-24T02:34:09;13.60;99.90
71142;DHT22;58808;59.366;17.970;2022-08-24T02:36:35;13.60;99.90
71142;DHT22;58808;59.366;17.970;2022-08-24T02:39:01;13.60;99.90
71142;DHT22;58808;59.366;17.970;2022-08-24T02:41:26;13.60;99.90
71142;DHT22;58808;59.366;17.970;2022-08-24T02:43:54;13.60;99.90
71142;DHT22;58808;59.366;17.970;2022-08-24T02:46:23;13.60;99.90
71142;DHT22;58808;59.366;17.970;2022-08-24T02:48:49;13.50;99.90
71142;DHT22;58808;59.366;17.970;2022-08-24T02:51:29;13.50;99.90
71142;DHT22;58808;59.366;17.970;2022-08-24T02:53:59;13.50;99.90
71142;DHT22;58808;59.366;17.970;2022-08-24T02:56:26;13.50;99.90
71142;DHT22;58808;59.366;17.970;2022-08-24T02:58:55;13.50;99.90
71142;DHT22;58808;59.366;17.970;2022-08-24T03:01:21;13.50;99.90
71142;DHT22;58808;59.366;17.970;2022-08-24T03:03:47;13.50;99.90
71142;DHT22;58808;59.366;17.970;2022-08-24T03:06:13;13.50;99.90
71142;DHT22;58808;59.366;17.970;2022-08-24T03:08:39;13.50;99.90
71142;DHT22;58808;59.366;17.970;2022-08-24T03:11:05;13.50;99.90
71142;DHT22;58808;59.366;17.970;2022-08-24T03:13:33;13.50;99.90
71142;DHT22;58808;59.366;17.970;2022-08-24T03:15:59;13.50;99.90
71142;DHT22;58808;59.366;17.970;2022-08-24T03:18:25;13.40;99.90
71142;DHT22;58808;59.366;17.970;2022-08-24T03:20:53;13.40;99.90
71142;DHT22;58808;59.366;17.970;2022-08-24T03:23:19;13.50;99.90
71142;DHT22;58808;59.366;17.970;2022-08-24T03:25:45;13.40;99.90
71142;DHT22;58808;59.366;17.970;2022-08-24T03:28:10;13.40;99.90
71142;DHT22;58808;59.366;17.970;2022-08-24T03:30:37;13.40;99.90
71142;DHT22;58808;59.366;17.970;2022-08-24T03:33:05;13.40;99.90
71142;DHT22;58808;59.366;17.970;2022-08-24T03:35:31;13.40;99.90
71142;DHT22;58808;59.366;17.970;2022-08-24T03:37:57;13.40;99.90
71142;DHT22;58808;59.366;17.970;2022-08-24T03:40:22;13.40;99.90
71142;DHT22;58808;59.366;17.970;2022-08-24T03:42:49;13.40;99.90
71142;DHT22;58808;59.366;17.970;2022-08-24T03:45:15;13.40;99.90
71142;DHT22;58808;59.366;17.970;2022-08-24T03:47:40;13.40;99.90
71142;DHT22;58808;59.366;17.970;2022-08-24T03:50:08;13.40;99.90
71142;DHT22;58808;59.366;17.970;2022-08-24T03:52:33;13.40;99.90
71142;DHT22;58808;59.366;17.970;2022-08-24T03:55:01;13.40;99.90
71142;DHT22;58808;59.366;17.970;2022-08-24T03:57:27;13.40;99.90
71142;DHT22;58808;59.366;17.970;2022-08-24T03:59:52;13.40;99.90
71142;DHT22;58808;59.366;17.970;2022-08-24T04:02:19;13.30;99.90
71142;DHT22;58808;59.366;17.970;2022-08-24T04:04:45;13.30;99.90
71142;DHT22;58808;59.366;17.970;2022-08-24T04:07:10;13.20;99.90
71142;DHT22;58808;59.366;17.970;2022-08-24T04:09:39;13.20;99.90
71142;DHT22;58808;59.366;17.970;2022-08-24T04:12:05;13.20;99.90
71142;DHT22;58808;59.366;17.970;2022-08-24T04:14:31;13.10;99.90
71142;DHT22;58808;59.366;17.970;2022-08-24T04:16:57;13.20;99.90
71142;DHT22;58808;59.366;17.970;2022-08-24T04:19:28;13.20;99.90
71142;DHT22;58808;59.366;17.970;2022-08-24T04:21:53;13.20;99.90
71142;DHT22;58808;59.366;17.970;2022-08-24T04:24:21;13.30;99.90
71142;DHT22;58808;59.366;17.970;2022-08-24T04:26:47;13.40;99.90
71142;DHT22;58808;59.366;17.970;2022-08-24T04:29:15;13.30;99.90
71142;DHT22;58808;59.366;17.970;2022-08-24T04:31:42;13.40;99.90
71142;DHT22;58808;59.366;17.970;2022-08-24T04:34:08;13.40;99.90
71142;DHT22;58808;59.366;17.970;2022-08-24T04:36:34;13.30;99.90
71142;DHT22;58808;59.366;17.970;2022-08-24T04:39:01;13.30;99.90
71142;DHT22;58808;59.366;17.970;2022-08-24T04:41:27;13.40;99.90
71142;DHT22;58808;59.366;17.970;2022-08-24T04:43:53;13.40;99.90
71142;DHT22;58808;59.366;17.970;2022-08-24T04:46:19;13.40;99.90
71142;DHT22;58808;59.366;17.970;2022-08-24T04:48:47;13.50;99.90
71142;DHT22;58808;59.366;17.970;2022-08-24T04:51:15;13.50;99.90
71142;DHT22;58808;59.366;17.970;2022-08-24T04:53:43;13.60;99.90
71142;DHT22;58808;59.366;17.970;2022-08-24T04:56:12;13.70;99.90
71142;DHT22;58808;59.366;17.970;2022-08-24T04:58:37;13.80;99.90
71142;DHT22;58808;59.366;17.970;2022-08-24T05:01:16;13.80;99.90
71142;DHT22;58808;59.366;17.970;2022-08-24T05:03:44;13.80;99.90
71142;DHT22;58808;59.366;17.970;2022-08-24T05:06:11;14.00;99.90
71142;DHT22;58808;59.366;17.970;2022-08-24T05:08:39;14.10;99.90
71142;DHT22;58808;59.366;17.970;2022-08-24T05:11:05;14.10;99.90
71142;DHT22;58808;59.366;17.970;2022-08-24T05:13:33;14.20;99.90
71142;DHT22;58808;59.366;17.970;2022-08-24T05:16:00;14.20;99.90
71142;DHT22;58808;59.366;17.970;2022-08-24T05:18:25;14.30;99.90
71142;DHT22;58808;59.366;17.970;2022-08-24T05:20:54;14.30;99.90
71142;DHT22;58808;59.366;17.970;2022-08-24T05:23:21;14.30;99.90
71142;DHT22;58808;59.366;17.970;2022-08-24T05:25:47;14.30;99.90
71142;DHT22;58808;59.366;17.970;2022-08-24T05:28:13;14.30;99.90
71142;DHT22;58808;59.366;17.970;2022-08-24T05:30:39;14.40;99.90
71142;DHT22;58808;59.366;17.970;2022-08-24T05:33:07;14.60;99.90
71142;DHT22;58808;59.366;17.970;2022-08-24T05:35:40;14.60;99.90
71142;DHT22;58808;59.366;17.970;2022-08-24T05:38:06;14.60;99.90
71142;DHT22;58808;59.366;17.970;2022-08-24T05:40:31;14.70;99.90
71142;DHT22;58808;59.366;17.970;2022-08-24T05:42:59;14.80;99.90
71142;DHT22;58808;59.366;17.970;2022-08-24T05:45:25;14.90;99.90
71142;DHT22;58808;59.366;17.970;2022-08-24T05:47:51;15.00;99.90
71142;DHT22;58808;59.366;17.970;2022-08-24T05:50:16;15.00;99.90
71142;DHT22;58808;59.366;17.970;2022-08-24T05:52:42;15.00;99.90
71142;DHT22;58808;59.366;17.970;2022-08-24T05:55:08;15.10;99.90
71142;DHT22;58808;59.366;17.970;2022-08-24T05:57:35;15.20;99.90
71142;DHT22;58808;59.366;17.970;2022-08-24T06:00:03;15.20;99.90
71142;DHT22;58808;59.366;17.970;2022-08-24T06:02:28;15.30;99.90
71142;DHT22;58808;59.366;17.970;2022-08-24T06:04:54;15.40;99.90
71142;DHT22;58808;59.366;17.970;2022-08-24T06:07:23;15.50;99.90
71142;DHT22;58808;59.366;17.970;2022-08-24T06:09:48;15.50;99.90
71142;DHT22;58808;59.366;17.970;2022-08-24T06:12:14;15.60;99.90
71142;DHT22;58808;59.366;17.970;2022-08-24T06:14:40;15.70;99.90
71142;DHT22;58808;59.366;17.970;2022-08-24T06:17:09;15.70;99.90
71142;DHT22;58808;59.366;17.970;2022-08-24T06:19:35;15.80;99.90
71142;DHT22;58808;59.366;17.970;2022-08-24T06:22:00;15.90;99.90
71142;DHT22;58808;59.366;17.970;2022-08-24T06:24:27;16.00;99.90
71142;DHT22;58808;59.366;17.970;2022-08-24T06:27:13;16.00;99.90
71142;DHT22;58808;59.366;17.970;2022-08-24T06:32:18;16.00;99.90
71142;DHT22;58808;59.366;17.970;2022-08-24T06:34:44;16.10;99.90
71142;DHT22;58808;59.366;17.970;2022-08-24T06:37:10;16.10;99.90
71142;DHT22;58808;59.366;17.970;2022-08-24T06:39:35;16.10;99.90
71142;DHT22;58808;59.366;17.970;2022-08-24T06:42:01;16.30;99.90
71142;DHT22;58808;59.366;17.970;2022-08-24T06:44:27;16.40;99.90
71142;DHT22;58808;59.366;17.970;2022-08-24T06:46:52;16.50;99.90
71142;DHT22;58808;59.366;17.970;2022-08-24T06:49:18;16.60;99.90
71142;DHT22;58808;59.366;17.970;2022-08-24T06:51:44;16.60;99.90
71142;DHT22;58808;59.366;17.970;2022-08-24T06:54:10;16.60;99.90
71142;DHT22;58808;59.366;17.970;2022-08-24T06:56:37;16.70;99.90
71142;DHT22;58808;59.366;17.970;2022-08-24T06:59:04;16.70;99.90
71142;DHT22;58808;59.366;17.970;2022-08-24T07:01:30;16.80;99.90
71142;DHT22;58808;59.366;17.970;2022-08-24T07:03:56;16.80;99.90
71142;DHT22;58808;59.366;17.970;2022-08-24T07:06:23;16.80;99.90
71142;DHT22;58808;59.366;17.970;2022-08-24T07:08:49;17.00;99.90
71142;DHT22;58808;59.366;17.970;2022-08-24T07:11:17;17.00;99.90
71142;DHT22;58808;59.366;17.970;2022-08-24T07:13:47;17.00;99.90
71142;DHT22;58808;59.366;17.970;2022-08-24T07:16:15;17.10;99.90
71142;DHT22;58808;59.366;17.970;2022-08-24T07:18:41;17.10;99.90
71142;DHT22;58808;59.366;17.970;2022-08-24T07:21:07;17.10;99.90
71142;DHT22;58808;59.366;17.970;2022-08-24T07:23:32;17.10;99.90
71142;DHT22;58808;59.366;17.970;2022-08-24T07:26:05;17.10;99.90
71142;DHT22;58808;59.366;17.970;2022-08-24T07:28:34;17.10;99.90
71142;DHT22;58808;59.366;17.970;2022-08-24T07:31:06;17.30;99.90
71142;DHT22;58808;59.366;17.970;2022-08-24T07:33:34;17.50;99.90
71142;DHT22;58808;59.366;17.970;2022-08-24T07:36:00;17.70;99.90
71142;DHT22;58808;59.366;17.970;2022-08-24T07:38:26;17.70;99.90
71142;DHT22;58808;59.366;17.970;2022-08-24T07:40:53;17.80;99.90
71142;DHT22;58808;59.366;17.970;2022-08-24T07:43:19;17.80;99.90
71142;DHT22;58808;59.366;17.970;2022-08-24T07:45:47;17.70;99.90
71142;DHT22;58808;59.366;17.970;2022-08-24T07:48:13;17.70;99.90
71142;DHT22;58808;59.366;17.970;2022-08-24T07:50:39;17.60;99.90
71142;DHT22;58808;59.366;17.970;2022-08-24T07:53:04;17.60;99.90
71142;DHT22;58808;59.366;17.970;2022-08-24T07:55:30;17.70;99.90
71142;DHT22;58808;59.366;17.970;2022-08-24T07:57:56;17.90;99.90
71142;DHT22;58808;59.366;17.970;2022-08-24T08:00:23;18.00;99.90
71142;DHT22;58808;59.366;17.970;2022-08-24T08:02:49;18.10;99.90
71142;DHT22;58808;59.366;17.970;2022-08-24T08:05:18;18.30;99.90
71142;DHT22;58808;59.366;17.970;2022-08-24T08:07:47;18.50;99.90
71142;DHT22;58808;59.366;17.970;2022-08-24T08:10:13;18.70;99.90
71142;DHT22;58808;59.366;17.970;2022-08-24T08:12:39;18.80;99.90
71142;DHT22;58808;59.366;17.970;2022-08-24T08:15:06;18.80;99.90
71142;DHT22;58808;59.366;17.970;2022-08-24T08:17:34;18.80;99.90
71142;DHT22;58808;59.366;17.970;2022-08-24T08:20:01;19.20;99.90
71142;DHT22;58808;59.366;17.970;2022-08-24T08:22:26;19.80;99.90
71142;DHT22;58808;59.366;17.970;2022-08-24T08:25:10;20.10;97.00
71142;DHT22;58808;59.366;17.970;2022-08-24T08:27:36;20.30;93.90
71142;DHT22;58808;59.366;17.970;2022-08-24T08:30:04;20.30;91.10
71142;DHT22;58808;59.366;17.970;2022-08-24T08:32:30;20.10;90.50
71142;DHT22;58808;59.366;17.970;2022-08-24T08:34:56;20.30;92.40
71142;DHT22;58808;59.366;17.970;2022-08-24T08:37:22;20.50;90.60
71142;DHT22;58808;59.366;17.970;2022-08-24T08:39:48;20.70;92.60
71142;DHT22;58808;59.366;17.970;2022-08-24T08:42:26;21.00;79.60
71142;DHT22;58808;59.366;17.970;2022-08-24T08:59:05;22.30;61.20
71142;DHT22;58808;59.366;17.970;2022-08-24T09:12:22;22.30;56.30
71142;DHT22;58808;59.366;17.970;2022-08-24T09:21:14;22.90;57.40
71142;DHT22;58808;59.366;17.970;2022-08-24T09:23:58;23.10;54.60
71142;DHT22;58808;59.366;17.970;2022-08-24T09:26:30;23.20;53.50
71142;DHT22;58808;59.366;17.970;2022-08-24T09:31:59;23.50;52.70
71142;DHT22;58808;59.366;17.970;2022-08-24T09:34:35;23.60;51.80
71142;DHT22;58808;59.366;17.970;2022-08-24T09:37:32;23.60;52.90
71142;DHT22;58808;59.366;17.970;2022-08-24T10:27:45;23.60;56.00
71142;DHT22;58808;59.366;17.970;2022-08-24T10:30:36;24.10;53.80
71142;DHT22;58808;59.366;17.970;2022-08-24T10:33:24;24.40;52.30
71142;DHT22;58808;59.366;17.970;2022-08-24T10:36:14;24.30;53.10
71142;DHT22;58808;59.366;17.970;2022-08-24T10:42:06;24.40;50.30
71142;DHT22;58808;59.366;17.970;2022-08-24T10:53:53;24.80;52.10
71142;DHT22;58808;59.366;17.970;2022-08-24T10:56:30;25.40;47.60
71142;DHT22;58808;59.366;17.970;2022-08-24T11:01:37;25.30;48.10
71142;DHT22;58808;59.366;17.970;2022-08-24T11:04:10;25.40;49.00
71142;DHT22;58808;59.366;17.970;2022-08-24T11:06:42;25.70;48.00
71142;DHT22;58808;59.366;17.970;2022-08-24T11:09:18;25.80;48.30
71142;DHT22;58808;59.366;17.970;2022-08-24T11:11:46;25.70;47.50
71142;DHT22;58808;59.366;17.970;2022-08-24T11:14:26;25.50;47.20
71142;DHT22;58808;59.366;17.970;2022-08-24T11:17:19;25.70;48.30
71142;DHT22;58808;59.366;17.970;2022-08-24T11:19:45;26.00;47.00
71142;DHT22;58808;59.366;17.970;2022-08-24T11:24:57;26.00;46.40
71142;DHT22;58808;59.366;17.970;2022-08-24T11:27:56;26.00;46.60
71142;DHT22;58808;59.366;17.970;2022-08-24T11:30:32;26.00;45.70
71142;DHT22;58808;59.366;17.970;2022-08-24T11:33:03;26.00;48.80
71142;DHT22;58808;59.366;17.970;2022-08-24T11:35:35;26.10;47.40
71142;DHT22;58808;59.366;17.970;2022-08-24T11:38:18;26.30;45.60
71142;DHT22;58808;59.366;17.970;2022-08-24T11:40:51;26.20;46.70
71142;DHT22;58808;59.366;17.970;2022-08-24T11:43:32;26.40;46.40
71142;DHT22;58808;59.366;17.970;2022-08-24T11:48:51;26.70;45.80
71142;DHT22;58808;59.366;17.970;2022-08-24T11:54:11;26.90;44.10
71142;DHT22;58808;59.366;17.970;2022-08-24T11:57:10;26.70;44.10
71142;DHT22;58808;59.366;17.970;2022-08-24T12:03:22;26.80;44.50
71142;DHT22;58808;59.366;17.970;2022-08-24T12:05:39;26.30;44.90
71142;DHT22;58808;59.366;17.970;2022-08-24T12:11:01;26.00;46.50
71142;DHT22;58808;59.366;17.970;2022-08-24T12:16:17;26.10;47.60
71142;DHT22;58808;59.366;17.970;2022-08-24T12:21:37;26.80;43.60
71142;DHT22;58808;59.366;17.970;2022-08-24T12:24:13;26.70;44.80
71142;DHT22;58808;59.366;17.970;2022-08-24T12:26:47;26.90;44.30
71142;DHT22;58808;59.366;17.970;2022-08-24T12:32:53;27.10;45.00
71142;DHT22;58808;59.366;17.970;2022-08-24T12:35:49;27.20;44.20
71142;DHT22;58808;59.366;17.970;2022-08-24T12:38:27;27.40;43.50
71142;DHT22;58808;59.366;17.970;2022-08-24T12:40:59;27.40;41.80
71142;DHT22;58808;59.366;17.970;2022-08-24T12:43:53;27.30;42.00
71142;DHT22;58808;59.366;17.970;2022-08-24T12:46:24;26.90;43.40
71142;DHT22;58808;59.366;17.970;2022-08-24T12:49:10;26.50;43.30
71142;DHT22;58808;59.366;17.970;2022-08-24T12:57:24;25.70;46.40
71142;DHT22;58808;59.366;17.970;2022-08-24T13:00:05;25.90;45.50
71142;DHT22;58808;59.366;17.970;2022-08-24T13:03:00;26.40;44.80
71142;DHT22;58808;59.366;17.970;2022-08-24T13:05:41;26.90;45.00
71142;DHT22;58808;59.366;17.970;2022-08-24T13:08:13;27.60;44.60
71142;DHT22;58808;59.366;17.970;2022-08-24T13:10:52;27.60;41.90
71142;DHT22;58808;59.366;17.970;2022-08-24T13:13:40;28.00;42.70
71142;DHT22;58808;59.366;17.970;2022-08-24T13:16:09;28.30;41.10
71142;DHT22;58808;59.366;17.970;2022-08-24T13:18:49;28.30;40.50
71142;DHT22;58808;59.366;17.970;2022-08-24T13:21:39;28.00;39.20
71142;DHT22;58808;59.366;17.970;2022-08-24T13:32:38;27.20;40.90
71142;DHT22;58808;59.366;17.970;2022-08-24T13:46:47;26.90;44.50
71142;DHT22;58808;59.366;17.970;2022-08-24T14:09:16;28.90;38.10
71142;DHT22;58808;59.366;17.970;2022-08-24T14:12:01;29.00;35.90
71142;DHT22;58808;59.366;17.970;2022-08-24T14:23:56;29.10;34.00
71142;DHT22;58808;59.366;17.970;2022-08-24T14:37:22;29.20;34.70
71142;DHT22;58808;59.366;17.970;2022-08-24T14:40:01;29.00;34.20
71142;DHT22;58808;59.366;17.970;2022-08-24T14:42:39;28.90;33.90
71142;DHT22;58808;59.366;17.970;2022-08-24T15:23:46;28.20;34.90
71142;DHT22;58808;59.366;17.970;2022-08-24T15:29:15;28.30;34.40
71142;DHT22;58808;59.366;17.970;2022-08-24T15:32:06;28.10;35.40
71142;DHT22;58808;59.366;17.970;2022-08-24T15:37:05;28.00;34.90
71142;DHT22;58808;59.366;17.970;2022-08-24T15:39:31;27.70;36.00
71142;DHT22;58808;59.366;17.970;2022-08-24T15:42:01;27.50;36.20
71142;DHT22;58808;59.366;17.970;2022-08-24T15:44:30;27.20;36.60
71142;DHT22;58808;59.366;17.970;2022-08-24T15:47:00;26.90;36.90
71142;DHT22;58808;59.366;17.970;2022-08-24T15:49:32;26.50;37.40
71142;DHT22;58808;59.366;17.970;2022-08-24T15:52:07;26.10;38.90
71142;DHT22;58808;59.366;17.970;2022-08-24T15:54:57;25.80;39.10
71142;DHT22;58808;59.366;17.970;2022-08-24T15:59:53;25.50;42.00
71142;DHT22;58808;59.366;17.970;2022-08-24T16:02:27;25.20;42.60
71142;DHT22;58808;59.366;17.970;2022-08-24T16:08:09;25.00;43.50
71142;DHT22;58808;59.366;17.970;2022-08-24T16:10:49;24.80;44.00
71142;DHT22;58808;59.366;17.970;2022-08-24T16:15:50;24.60;45.10
71142;DHT22;58808;59.366;17.970;2022-08-24T16:18:20;24.50;45.60
71142;DHT22;58808;59.366;17.970;2022-08-24T16:20:47;24.50;44.70
71142;DHT22;58808;59.366;17.970;2022-08-24T16:23:24;24.40;45.00
71142;DHT22;58808;59.366;17.970;2022-08-24T16:28:45;24.20;46.10
71142;DHT22;58808;59.366;17.970;2022-08-24T16:34:30;24.30;46.20
71142;DHT22;58808;59.366;17.970;2022-08-24T16:36:57;24.10;46.70
71142;DHT22;58808;59.366;17.970;2022-08-24T16:39:23;23.90;48.20
71142;DHT22;58808;59.366;17.970;2022-08-24T16:41:57;23.80;49.00
71142;DHT22;58808;59.366;17.970;2022-08-24T16:44:26;23.90;47.40
71142;DHT22;58808;59.366;17.970;2022-08-24T16:46:55;23.90;47.80
71142;DHT22;58808;59.366;17.970;2022-08-24T16:49:21;23.80;48.20
71142;DHT22;58808;59.366;17.970;2022-08-24T16:51:47;23.70;48.90
71142;DHT22;58808;59.366;17.970;2022-08-24T16:54:13;23.70;49.90
71142;DHT22;58808;59.366;17.970;2022-08-24T16:56:38;23.70;49.20
71142;DHT22;58808;59.366;17.970;2022-08-24T16:59:05;23.70;49.30
71142;DHT22;58808;59.366;17.970;2022-08-24T17:01:31;23.60;50.20
71142;DHT22;58808;59.366;17.970;2022-08-24T17:03:59;23.60;50.40
71142;DHT22;58808;59.366;17.970;2022-08-24T17:06:25;23.50;50.30
71142;DHT22;58808;59.366;17.970;2022-08-24T17:08:51;23.20;50.80
71142;DHT22;58808;59.366;17.970;2022-08-24T17:11:17;23.10;49.90
71142;DHT22;58808;59.366;17.970;2022-08-24T17:13:44;22.80;50.70
71142;DHT22;58808;59.366;17.970;2022-08-24T17:16:11;22.70;52.30
71142;DHT22;58808;59.366;17.970;2022-08-24T17:18:38;22.70;51.10
71142;DHT22;58808;59.366;17.970;2022-08-24T17:21:04;22.70;51.10
71142;DHT22;58808;59.366;17.970;2022-08-24T17:23:31;22.70;51.50
71142;DHT22;58808;59.366;17.970;2022-08-24T17:25:59;22.70;51.70
71142;DHT22;58808;59.366;17.970;2022-08-24T17:28:28;22.70;51.70
71142;DHT22;58808;59.366;17.970;2022-08-24T17:30:53;22.60;51.60
71142;DHT22;58808;59.366;17.970;2022-08-24T17:33:19;22.60;51.40
71142;DHT22;58808;59.366;17.970;2022-08-24T17:35:45;22.50;51.90
71142;DHT22;58808;59.366;17.970;2022-08-24T17:44:52;22.30;52.80
71142;DHT22;58808;59.366;17.970;2022-08-24T17:47:19;22.00;54.50
71142;DHT22;58808;59.366;17.970;2022-08-24T17:49:49;21.90;54.20
71142;DHT22;58808;59.366;17.970;2022-08-24T17:52:15;21.90;55.50
71142;DHT22;58808;59.366;17.970;2022-08-24T17:54:41;21.90;55.10
71142;DHT22;58808;59.366;17.970;2022-08-24T17:57:10;21.80;55.20
71142;DHT22;58808;59.366;17.970;2022-08-24T17:59:36;21.70;56.00
71142;DHT22;58808;59.366;17.970;2022-08-24T18:02:06;21.50;57.60
71142;DHT22;58808;59.366;17.970;2022-08-24T18:04:34;21.40;58.90
71142;DHT22;58808;59.366;17.970;2022-08-24T18:07:06;21.30;59.60
71142;DHT22;58808;59.366;17.970;2022-08-24T18:09:35;21.20;60.80
71142;DHT22;58808;59.366;17.970;2022-08-24T18:12:02;21.10;61.80
71142;DHT22;58808;59.366;17.970;2022-08-24T18:14:32;21.10;62.40
71142;DHT22;58808;59.366;17.970;2022-08-24T18:17:01;21.10;63.50
71142;DHT22;58808;59.366;17.970;2022-08-24T18:19:30;21.00;64.70
71142;DHT22;58808;59.366;17.970;2022-08-24T18:21:56;20.90;65.80
71142;DHT22;58808;59.366;17.970;2022-08-24T18:24:22;20.80;67.10
71142;DHT22;58808;59.366;17.970;2022-08-24T18:26:49;20.80;67.70
71142;DHT22;58808;59.366;17.970;2022-08-24T18:29:19;20.80;68.10
71142;DHT22;58808;59.366;17.970;2022-08-24T18:34:52;20.80;69.10
71142;DHT22;58808;59.366;17.970;2022-08-24T18:37:17;20.70;70.20
71142;DHT22;58808;59.366;17.970;2022-08-24T18:39:43;20.70;71.40
71142;DHT22;58808;59.366;17.970;2022-08-24T18:42:10;20.70;71.90
71142;DHT22;58808;59.366;17.970;2022-08-24T18:44:37;20.80;70.60
71142;DHT22;58808;59.366;17.970;2022-08-24T18:47:03;20.70;73.20
71142;DHT22;58808;59.366;17.970;2022-08-24T18:49:29;20.70;72.00
71142;DHT22;58808;59.366;17.970;2022-08-24T18:51:55;20.70;71.10
71142;DHT22;58808;59.366;17.970;2022-08-24T18:54:23;20.60;72.60
71142;DHT22;58808;59.366;17.970;2022-08-24T18:56:51;20.40;75.30
71142;DHT22;58808;59.366;17.970;2022-08-24T18:59:18;20.40;76.10
71142;DHT22;58808;59.366;17.970;2022-08-24T19:01:46;20.30;76.90
71142;DHT22;58808;59.366;17.970;2022-08-24T19:04:32;20.20;77.90
71142;DHT22;58808;59.366;17.970;2022-08-24T19:07:00;20.10;78.80
71142;DHT22;58808;59.366;17.970;2022-08-24T19:09:26;20.10;79.50
71142;DHT22;58808;59.366;17.970;2022-08-24T19:11:52;20.10;80.30
71142;DHT22;58808;59.366;17.970;2022-08-24T19:14:18;20.00;81.90
71142;DHT22;58808;59.366;17.970;2022-08-24T19:16:43;19.90;81.30
71142;DHT22;58808;59.366;17.970;2022-08-24T19:19:09;19.90;82.00
71142;DHT22;58808;59.366;17.970;2022-08-24T19:21:36;19.90;83.20
71142;DHT22;58808;59.366;17.970;2022-08-24T19:24:02;19.80;85.80
71142;DHT22;58808;59.366;17.970;2022-08-24T19:26:29;19.80;83.20
71142;DHT22;58808;59.366;17.970;2022-08-24T19:28:55;19.70;83.60
71142;DHT22;58808;59.366;17.970;2022-08-24T19:31:23;19.70;84.50
71142;DHT22;58808;59.366;17.970;2022-08-24T19:33:50;19.70;80.90
71142;DHT22;58808;59.366;17.970;2022-08-24T19:36:17;19.60;81.50
71142;DHT22;58808;59.366;17.970;2022-08-24T19:38:43;19.50;84.30
71142;DHT22;58808;59.366;17.970;2022-08-24T19:41:09;19.60;82.00
71142;DHT22;58808;59.366;17.970;2022-08-24T19:43:35;19.50;83.40
71142;DHT22;58808;59.366;17.970;2022-08-24T19:46:22;19.30;86.10
71142;DHT22;58808;59.366;17.970;2022-08-24T19:48:49;19.30;86.80